createdAt,value
2019-01-26T00:01:00.396Z,-2.41
2019-01-26T00:03:29.066Z,-2.35
2019-01-26T00:05:58.073Z,-2.32
2019-01-26T00:08:26.660Z,-2.36
2019-01-26T00:10:55.211Z,-2.43
2019-01-26T00:13:23.851Z,-2.36
2019-01-26T00:15:52.455Z,-2.39
2019-01-26T00:18:21.120Z,-2.39
2019-01-26T00:20:49.682Z,-2.32
2019-01-26T00:23:18.843Z,-2.35
2019-01-26T00:25:47.413Z,-2.35
2019-01-26T00:28:16.057Z,-2.32
2019-01-26T00:30:44.635Z,-2.29
2019-01-26T00:33:14.284Z,-2.20
2019-01-26T00:35:42.858Z,-2.20
2019-01-26T00:38:11.552Z,-2.18
2019-01-26T00:40:40.140Z,-2.13
2019-01-26T00:43:08.721Z,-1.98
2019-01-26T00:45:37.315Z,-2.09
2019-01-26T00:48:06.044Z,-2.13
2019-01-26T00:50:34.648Z,-2.04
2019-01-26T00:53:03.265Z,-2.02
2019-01-26T00:55:32.210Z,-2.15
2019-01-26T00:58:00.937Z,-1.99
2019-01-26T01:00:29.593Z,-1.95
2019-01-26T01:02:58.343Z,-1.91
2019-01-26T01:05:27.262Z,-1.97
2019-01-26T01:07:55.977Z,-1.89
2019-01-26T01:10:24.984Z,-1.98
2019-01-26T01:12:53.562Z,-1.87
2019-01-26T01:15:23.288Z,-1.88
2019-01-26T01:17:52.439Z,-1.87
2019-01-26T01:20:21.125Z,-1.83
2019-01-26T01:22:49.697Z,-1.80
2019-01-26T01:25:18.243Z,-1.81
2019-01-26T01:27:47.139Z,-1.86
2019-01-26T01:30:19.431Z,-1.89
2019-01-26T01:32:48.100Z,-1.97
2019-01-26T01:35:16.960Z,-1.85
2019-01-26T01:37:45.531Z,-1.84
2019-01-26T01:40:16.000Z,-1.76
2019-01-26T01:42:44.973Z,-1.90
2019-01-26T01:45:19.421Z,-1.88
2019-01-26T01:47:48.067Z,-1.88
2019-01-26T01:50:16.641Z,-1.85
2019-01-26T01:52:45.298Z,-1.85
2019-01-26T01:55:14.286Z,-1.79
2019-01-26T01:57:43.366Z,-1.89
2019-01-26T02:00:20.882Z,-1.82
2019-01-26T02:02:49.532Z,-1.86
2019-01-26T02:05:18.226Z,-1.82
2019-01-26T02:07:46.939Z,-1.82
2019-01-26T02:10:18.100Z,-1.82
2019-01-26T02:12:47.053Z,-1.81
2019-01-26T02:15:15.660Z,-1.83
2019-01-26T02:17:44.228Z,-1.81
2019-01-26T02:20:17.902Z,-1.89
2019-01-26T02:22:46.554Z,-1.83
2019-01-26T02:25:15.161Z,-1.78
2019-01-26T02:27:43.754Z,-1.83
2019-01-26T02:30:18.693Z,-1.79
2019-01-26T02:32:47.279Z,-1.78
2019-01-26T02:35:15.904Z,-1.73
2019-01-26T02:37:44.651Z,-1.80
2019-01-26T02:40:15.627Z,-1.83
2019-01-26T02:42:44.178Z,-1.76
2019-01-26T02:45:14.237Z,-1.73
2019-01-26T02:47:43.306Z,-1.82
2019-01-26T02:50:14.296Z,-1.69
2019-01-26T02:52:42.901Z,-1.65
2019-01-26T02:55:12.017Z,-1.75
2019-01-26T02:57:40.579Z,-1.71
2019-01-26T03:00:17.983Z,-1.74
2019-01-26T03:02:46.613Z,-1.63
2019-01-26T03:05:15.551Z,-1.66
2019-01-26T03:07:44.222Z,-1.62
2019-01-26T03:10:16.048Z,-1.58
2019-01-26T03:12:44.675Z,-1.62
2019-01-26T03:15:16.447Z,-1.59
2019-01-26T03:17:45.120Z,-1.59
2019-01-26T03:20:15.336Z,-1.53
2019-01-26T03:22:43.897Z,-1.53
2019-01-26T03:25:14.165Z,-1.52
2019-01-26T03:27:42.727Z,-1.49
2019-01-26T03:30:14.734Z,-1.52
2019-01-26T03:32:43.359Z,-1.47
2019-01-26T03:35:12.053Z,-1.51
2019-01-26T03:37:40.644Z,-1.48
2019-01-26T03:40:12.357Z,-1.42
2019-01-26T03:42:41.452Z,-1.47
2019-01-26T03:45:12.631Z,-1.41
2019-01-26T03:47:41.310Z,-1.35
2019-01-26T03:50:12.275Z,-1.34
2019-01-26T03:52:40.849Z,-1.32
2019-01-26T03:55:11.729Z,-1.36
2019-01-26T03:57:40.804Z,-1.32
2019-01-26T04:00:26.446Z,-1.26
2019-01-26T04:02:55.089Z,-1.24
2019-01-26T04:05:23.714Z,-1.24
2019-01-26T04:07:52.316Z,-1.22
2019-01-26T04:10:20.862Z,-1.23
2019-01-26T04:12:49.545Z,-1.12
2019-01-26T04:15:19.870Z,-1.10
2019-01-26T04:17:48.695Z,-1.05
2019-01-26T04:20:19.919Z,-1.12
2019-01-26T04:22:48.679Z,-1.05
2019-01-26T04:25:17.200Z,-1.07
2019-01-26T04:27:45.783Z,-0.91
2019-01-26T04:30:16.864Z,-0.94
2019-01-26T04:32:45.416Z,-0.92
2019-01-26T04:35:14.091Z,-1.00
2019-01-26T04:37:42.691Z,-0.91
2019-01-26T04:40:14.047Z,-0.91
2019-01-26T04:42:42.721Z,-0.95
2019-01-26T04:45:16.651Z,-0.96
2019-01-26T04:47:45.212Z,-0.95
2019-01-26T04:50:16.027Z,-0.89
2019-01-26T04:52:44.959Z,-0.86
2019-01-26T04:55:14.141Z,-0.76
2019-01-26T04:57:42.738Z,-0.81
2019-01-26T05:00:14.435Z,-0.86
2019-01-26T05:02:43.492Z,-0.78
2019-01-26T05:05:12.100Z,-0.78
2019-01-26T05:07:40.715Z,-0.77
2019-01-26T05:10:12.675Z,-0.79
2019-01-26T05:12:41.344Z,-0.78
2019-01-26T05:15:12.903Z,-0.66
2019-01-26T05:17:41.874Z,-0.72
2019-01-26T05:20:13.519Z,-0.68
2019-01-26T05:22:42.167Z,-0.64
2019-01-26T05:25:10.917Z,-0.71
2019-01-26T05:27:39.501Z,-0.53
2019-01-26T05:30:20.060Z,-0.51
2019-01-26T05:32:48.646Z,-0.55
2019-01-26T05:35:17.179Z,-0.47
2019-01-26T05:37:45.746Z,-0.40
2019-01-26T05:40:16.939Z,-0.57
2019-01-26T05:42:45.501Z,-0.44
2019-01-26T05:45:17.149Z,-0.48
2019-01-26T05:47:48.922Z,-0.34
2019-01-26T05:50:24.408Z,-0.42
2019-01-26T05:52:53.083Z,-0.33
2019-01-26T05:55:21.700Z,-0.48
2019-01-26T05:57:50.288Z,-0.53
2019-01-26T06:00:23.468Z,-0.47
2019-01-26T06:02:52.231Z,-0.29
2019-01-26T06:05:21.802Z,-0.26
2019-01-26T06:07:50.370Z,-0.34
2019-01-26T06:10:18.927Z,-0.29
2019-01-26T06:12:47.520Z,-0.30
2019-01-26T06:15:16.278Z,-0.26
2019-01-26T06:17:44.815Z,-0.21
2019-01-26T06:20:15.713Z,-0.14
2019-01-26T06:22:44.369Z,-0.15
2019-01-26T06:25:20.462Z,-0.13
2019-01-26T06:27:50.012Z,-0.18
2019-01-26T06:30:20.698Z,-0.17
2019-01-26T06:32:50.446Z,0.02
2019-01-26T06:35:19.031Z,0.07
2019-01-26T06:37:47.583Z,0.08
2019-01-26T06:40:18.235Z,0.05
2019-01-26T06:42:47.107Z,0.12
2019-01-26T06:45:17.854Z,0.05
2019-01-26T06:47:46.485Z,0.13
2019-01-26T06:50:18.996Z,0.35
2019-01-26T06:52:47.577Z,0.36
2019-01-26T06:55:16.163Z,0.45
2019-01-26T06:57:44.726Z,0.44
2019-01-26T07:00:16.235Z,0.38
2019-01-26T07:02:45.228Z,0.46
2019-01-26T07:05:15.872Z,0.52
2019-01-26T07:07:44.562Z,0.60
2019-01-26T07:10:13.158Z,0.64
2019-01-26T07:12:42.118Z,0.75
2019-01-26T07:15:11.772Z,0.95
2019-01-26T07:17:40.360Z,0.82
2019-01-26T07:20:17.331Z,0.71
2019-01-26T07:22:46.088Z,1.02
2019-01-26T07:25:14.948Z,0.97
2019-01-26T07:27:43.555Z,1.18
2019-01-26T07:30:22.673Z,1.18
2019-01-26T07:32:51.277Z,1.22
2019-01-26T07:35:19.905Z,1.13
2019-01-26T07:37:48.592Z,1.27
2019-01-26T07:40:22.125Z,1.33
2019-01-26T07:42:51.132Z,1.35
2019-01-26T07:45:19.929Z,1.34
2019-01-26T07:47:48.691Z,1.34
2019-01-26T07:50:19.723Z,1.44
2019-01-26T07:52:48.415Z,1.31
2019-01-26T07:55:17.349Z,1.40
2019-01-26T07:57:46.067Z,1.36
2019-01-26T08:00:23.118Z,1.50
2019-01-26T08:02:52.060Z,1.49
2019-01-26T08:05:20.861Z,1.36
2019-01-26T08:07:49.500Z,1.42
2019-01-26T08:10:23.157Z,1.39
2019-01-26T08:12:51.911Z,1.59
2019-01-26T08:15:26.629Z,1.66
2019-01-26T08:17:55.341Z,1.73
2019-01-26T08:20:24.609Z,1.70
2019-01-26T08:22:53.358Z,1.86
2019-01-26T08:25:21.973Z,1.84
2019-01-26T08:27:51.219Z,1.99
2019-01-26T08:30:22.399Z,2.06
2019-01-26T08:32:51.839Z,1.78
2019-01-26T08:35:20.745Z,2.02
2019-01-26T08:37:49.968Z,2.09
2019-01-26T08:40:20.461Z,2.21
2019-01-26T08:42:49.076Z,2.15
2019-01-26T08:45:17.707Z,2.27
2019-01-26T08:47:46.514Z,2.27
2019-01-26T08:50:21.371Z,2.44
2019-01-26T08:52:50.051Z,2.40
2019-01-26T08:55:19.199Z,2.50
2019-01-26T08:57:48.187Z,2.48
2019-01-26T09:00:25.532Z,2.45
2019-01-26T09:02:56.157Z,2.45
2019-01-26T09:05:26.508Z,2.60
2019-01-26T09:07:55.210Z,2.58
2019-01-26T09:10:24.054Z,2.65
2019-01-26T09:12:52.804Z,2.48
2019-01-26T09:15:22.343Z,2.49
2019-01-26T09:17:51.002Z,2.59
2019-01-26T09:20:19.767Z,2.56
2019-01-26T09:22:48.433Z,2.71
2019-01-26T09:25:17.041Z,2.90
2019-01-26T09:27:46.123Z,2.38
2019-01-26T09:30:20.028Z,2.53
2019-01-26T09:32:50.280Z,2.62
2019-01-26T09:35:19.889Z,2.63
2019-01-26T09:37:48.583Z,2.69
2019-01-26T09:40:21.736Z,2.45
2019-01-26T09:42:50.450Z,2.51
2019-01-26T09:45:20.490Z,2.60
2019-01-26T09:47:50.148Z,2.77
2019-01-26T09:50:21.580Z,2.74
2019-01-26T09:52:50.244Z,2.72
2019-01-26T09:55:20.537Z,2.66
2019-01-26T09:57:50.464Z,2.88
2019-01-26T10:00:21.325Z,2.93
2019-01-26T10:02:50.179Z,2.78
2019-01-26T10:05:19.344Z,2.84
2019-01-26T10:07:50.238Z,2.93
2019-01-26T10:10:19.925Z,2.96
2019-01-26T10:12:49.105Z,2.86
2019-01-26T10:15:23.224Z,3.19
2019-01-26T10:17:52.053Z,3.21
2019-01-26T10:20:23.728Z,3.19
2019-01-26T10:22:52.539Z,3.16
2019-01-26T10:25:21.328Z,2.89
2019-01-26T10:27:50.431Z,3.25
2019-01-26T10:30:23.762Z,3.21
2019-01-26T10:32:52.595Z,3.19
2019-01-26T10:35:22.865Z,3.18
2019-01-26T10:37:51.474Z,3.22
2019-01-26T10:40:37.763Z,3.22
2019-01-26T10:43:06.904Z,3.31
2019-01-26T10:45:35.720Z,3.26
2019-01-26T10:48:04.554Z,3.22
2019-01-26T10:50:33.415Z,3.47
2019-01-26T10:53:02.804Z,3.31
2019-01-26T10:55:32.993Z,3.52
2019-01-26T10:58:03.658Z,3.64
2019-01-26T11:00:32.265Z,3.53
2019-01-26T11:03:00.947Z,3.31
2019-01-26T11:05:29.645Z,3.52
2019-01-26T11:07:58.422Z,3.44
2019-01-26T11:10:27.080Z,3.64
2019-01-26T11:12:58.752Z,3.60
2019-01-26T11:15:27.776Z,3.60
2019-01-26T11:17:56.523Z,3.66
2019-01-26T11:20:25.237Z,3.44
2019-01-26T11:22:54.151Z,3.64
2019-01-26T11:25:22.702Z,3.56
2019-01-26T11:27:51.701Z,3.52
2019-01-26T11:30:22.346Z,3.59
2019-01-26T11:32:51.200Z,3.57
2019-01-26T11:35:26.198Z,3.39
2019-01-26T11:37:55.299Z,3.26
2019-01-26T11:40:23.893Z,3.28
2019-01-26T11:42:52.896Z,3.36
2019-01-26T11:45:23.563Z,3.25
2019-01-26T11:47:52.504Z,3.42
2019-01-26T11:50:28.538Z,3.50
2019-01-26T11:52:57.282Z,3.34
2019-01-26T11:55:27.708Z,3.43
2019-01-26T11:57:57.198Z,3.19
2019-01-26T12:00:30.112Z,3.28
2019-01-26T12:03:00.552Z,3.19
2019-01-26T12:05:31.010Z,3.08
2019-01-26T12:07:59.816Z,3.27
2019-01-26T12:10:28.405Z,3.17
2019-01-26T12:12:57.031Z,3.14
2019-01-26T12:15:25.578Z,3.37
2019-01-26T12:17:54.255Z,3.45
2019-01-26T12:20:22.986Z,3.22
2019-01-26T12:22:51.758Z,3.41
2019-01-26T12:25:20.544Z,3.43
2019-01-26T12:27:49.275Z,3.65
2019-01-26T12:30:20.606Z,3.56
2019-01-26T12:32:49.363Z,3.57
2019-01-26T12:35:18.310Z,3.50
2019-01-26T12:37:48.696Z,3.72
2019-01-26T12:40:17.768Z,3.52
2019-01-26T12:42:46.775Z,3.62
2019-01-26T12:45:18.616Z,3.39
2019-01-26T12:47:47.521Z,3.35
2019-01-26T12:50:17.229Z,3.59
2019-01-26T12:52:47.325Z,3.55
2019-01-26T12:55:20.959Z,3.56
2019-01-26T12:57:49.977Z,3.56
2019-01-26T13:00:24.961Z,3.72
2019-01-26T13:02:54.179Z,3.51
2019-01-26T13:05:22.954Z,3.61
2019-01-26T13:07:51.800Z,3.43
2019-01-26T13:10:29.171Z,3.29
2019-01-26T13:12:58.872Z,3.43
2019-01-26T13:15:28.137Z,3.42
2019-01-26T13:17:57.852Z,3.52
2019-01-26T13:20:27.075Z,3.48
2019-01-26T13:22:55.697Z,3.41
2019-01-26T13:25:25.377Z,3.36
2019-01-26T13:27:54.427Z,3.58
2019-01-26T13:30:24.641Z,3.47
2019-01-26T13:32:53.633Z,3.48
2019-01-26T13:35:22.397Z,3.57
2019-01-26T13:37:51.927Z,3.43
2019-01-26T13:40:29.146Z,3.32
2019-01-26T13:42:57.969Z,3.55
2019-01-26T13:45:26.718Z,3.67
2019-01-26T13:47:55.599Z,3.53
2019-01-26T13:50:25.452Z,3.43
2019-01-26T13:52:54.242Z,3.46
2019-01-26T13:55:24.361Z,3.43
2019-01-26T13:57:54.495Z,3.36
2019-01-26T14:00:29.145Z,3.21
2019-01-26T14:02:58.735Z,3.31
2019-01-26T14:05:27.910Z,3.34
2019-01-26T14:07:56.720Z,3.30
2019-01-26T14:10:26.151Z,3.10
2019-01-26T14:12:57.224Z,3.09
2019-01-26T14:15:28.695Z,3.05
2019-01-26T14:17:57.629Z,3.03
2019-01-26T14:20:28.491Z,2.94
2019-01-26T14:22:58.848Z,3.10
2019-01-26T14:25:28.197Z,3.01
2019-01-26T14:27:57.715Z,3.06
2019-01-26T14:30:36.357Z,3.10
2019-01-26T14:33:07.298Z,2.97
2019-01-26T14:35:36.868Z,2.98
2019-01-26T14:38:07.784Z,2.98
2019-01-26T14:40:36.543Z,2.93
2019-01-26T14:43:05.899Z,2.97
2019-01-26T14:45:35.075Z,2.93
2019-01-26T14:48:05.177Z,3.03
2019-01-26T14:50:33.935Z,2.97
2019-01-26T14:53:02.714Z,2.99
2019-01-26T14:55:32.177Z,2.97
2019-01-26T14:58:00.835Z,2.90
2019-01-26T15:00:32.321Z,2.76
2019-01-26T15:03:01.128Z,2.77
2019-01-26T15:05:31.027Z,2.85
2019-01-26T15:07:59.941Z,2.82
2019-01-26T15:10:29.112Z,2.66
2019-01-26T15:12:58.441Z,2.76
2019-01-26T15:15:27.237Z,2.71
2019-01-26T15:17:55.972Z,2.73
2019-01-26T15:20:30.682Z,2.66
2019-01-26T15:22:59.891Z,2.73
2019-01-26T15:25:29.451Z,2.68
2019-01-26T15:27:58.623Z,2.72
2019-01-26T15:30:30.270Z,2.62
2019-01-26T15:32:59.150Z,2.69
2019-01-26T15:35:28.077Z,2.67
2019-01-26T15:37:56.950Z,2.49
2019-01-26T15:40:26.509Z,2.65
2019-01-26T15:42:55.407Z,2.64
2019-01-26T15:45:37.374Z,2.64
2019-01-26T15:48:06.919Z,2.64
2019-01-26T15:50:35.929Z,2.59
2019-01-26T15:53:05.522Z,2.51
2019-01-26T15:55:34.406Z,2.46
2019-01-26T15:58:03.328Z,2.44
2019-01-26T16:00:40.581Z,2.48
2019-01-26T16:03:10.517Z,2.50
2019-01-26T16:05:39.521Z,2.42
2019-01-26T16:08:08.569Z,2.46
2019-01-26T16:10:37.268Z,2.44
2019-01-26T16:13:13.500Z,2.46
2019-01-26T16:15:42.200Z,2.44
2019-01-26T16:18:11.935Z,2.46
2019-01-26T16:20:40.770Z,2.48
2019-01-26T16:23:10.396Z,2.45
2019-01-26T16:25:39.144Z,2.45
2019-01-26T16:28:08.050Z,2.41
2019-01-26T16:30:36.728Z,2.43
2019-01-26T16:33:05.819Z,2.43
2019-01-26T16:35:35.204Z,2.39
2019-01-26T16:38:04.153Z,2.40
2019-01-26T16:40:35.305Z,2.37
2019-01-26T16:43:04.713Z,2.42
2019-01-26T16:45:37.719Z,2.29
2019-01-26T16:48:09.409Z,2.38
2019-01-26T16:50:38.784Z,2.31
2019-01-26T16:53:07.520Z,2.37
2019-01-26T16:55:36.538Z,2.37
2019-01-26T16:58:05.378Z,2.36
2019-01-26T17:00:39.888Z,2.37
2019-01-26T17:03:09.209Z,2.34
2019-01-26T17:05:39.054Z,2.25
2019-01-26T17:08:09.569Z,2.33
2019-01-26T17:10:38.963Z,2.33
2019-01-26T17:13:07.812Z,2.33
2019-01-26T17:15:36.613Z,2.34
2019-01-26T17:18:13.459Z,2.20
2019-01-26T17:20:40.366Z,2.26
2019-01-26T17:23:09.714Z,2.33
2019-01-26T17:25:42.676Z,2.27
2019-01-26T17:28:12.319Z,2.27
2019-01-26T17:30:43.327Z,2.29
2019-01-26T17:33:12.509Z,2.30
2019-01-26T17:35:41.527Z,2.21
2019-01-26T17:38:10.787Z,2.26
2019-01-26T17:40:39.726Z,2.28
2019-01-26T17:43:09.324Z,1.87
2019-01-26T17:45:38.054Z,2.33
2019-01-26T17:48:07.496Z,2.22
2019-01-26T17:50:42.041Z,2.26
2019-01-26T17:53:07.680Z,2.27
2019-01-26T17:55:37.525Z,2.28
2019-01-26T17:58:07.103Z,2.25
2019-01-26T18:00:38.660Z,2.30
2019-01-26T18:03:07.765Z,2.33
2019-01-26T18:05:36.604Z,2.29
2019-01-26T18:08:05.869Z,2.31
2019-01-26T18:10:35.358Z,2.31
2019-01-26T18:13:05.261Z,2.34
2019-01-26T18:15:34.358Z,2.30
2019-01-26T18:18:03.565Z,2.27
2019-01-26T18:20:32.657Z,2.31
2019-01-26T18:23:06.504Z,2.24
2019-01-26T18:25:40.730Z,2.30
2019-01-26T18:28:10.068Z,2.25
2019-01-26T18:30:40.836Z,2.32
2019-01-26T18:33:10.039Z,2.31
2019-01-26T18:35:39.125Z,2.33
2019-01-26T18:38:09.693Z,2.31
2019-01-26T18:40:39.483Z,2.29
2019-01-26T18:43:12.421Z,2.31
2019-01-26T18:45:42.802Z,2.24
2019-01-26T18:48:12.360Z,2.28
2019-01-26T18:50:44.909Z,2.34
2019-01-26T18:53:17.207Z,2.38
2019-01-26T18:55:46.858Z,2.39
2019-01-26T18:58:17.383Z,2.32
2019-01-26T19:00:48.185Z,2.37
2019-01-26T19:03:29.773Z,2.28
2019-01-26T19:05:59.819Z,2.34
2019-01-26T19:08:33.560Z,2.23
2019-01-26T19:11:02.524Z,2.23
2019-01-26T19:13:33.091Z,2.14
2019-01-26T19:16:02.005Z,2.37
2019-01-26T19:18:32.236Z,2.29
2019-01-26T19:21:04.077Z,2.40
2019-01-26T19:23:32.865Z,2.40
2019-01-26T19:26:01.758Z,2.38
2019-01-26T19:28:30.584Z,2.43
2019-01-26T19:31:00.795Z,2.39
2019-01-26T19:33:29.959Z,2.38
2019-01-26T19:35:59.007Z,2.40
2019-01-26T19:38:28.161Z,2.42
2019-01-26T19:40:57.175Z,2.37
2019-01-26T19:43:26.222Z,2.46
2019-01-26T19:45:57.354Z,2.49
2019-01-26T19:48:27.119Z,2.47
2019-01-26T19:50:56.284Z,2.54
2019-01-26T19:53:28.429Z,2.58
2019-01-26T19:55:57.463Z,2.42
2019-01-26T19:58:27.074Z,2.49
2019-01-26T20:00:56.422Z,2.52
2019-01-26T20:03:26.445Z,2.54
2019-01-26T20:05:59.276Z,2.61
2019-01-26T20:08:29.645Z,2.65
2019-01-26T20:10:59.662Z,2.57
2019-01-26T20:13:30.821Z,2.62
2019-01-26T20:15:59.868Z,2.65
2019-01-26T20:18:30.037Z,2.58
2019-01-26T20:20:59.539Z,2.58
2019-01-26T20:23:28.784Z,2.54
2019-01-26T20:25:59.435Z,2.56
2019-01-26T20:28:29.432Z,2.59
2019-01-26T20:30:58.869Z,2.53
2019-01-26T20:33:28.070Z,2.74
2019-01-26T20:35:57.959Z,2.69
2019-01-26T20:38:27.415Z,2.50
2019-01-26T20:40:56.866Z,2.67
2019-01-26T20:43:26.749Z,2.85
2019-01-26T20:45:56.530Z,2.92
2019-01-26T20:48:25.864Z,2.96
2019-01-26T20:50:54.801Z,3.02
2019-01-26T20:53:25.109Z,3.04
2019-01-26T20:55:54.433Z,3.05
2019-01-26T20:58:23.920Z,3.07
2019-01-26T21:00:54.933Z,3.19
2019-01-26T21:03:24.300Z,3.17
2019-01-26T21:05:54.006Z,3.19
2019-01-26T21:08:24.790Z,3.22
2019-01-26T21:10:54.188Z,3.18
2019-01-26T21:13:23.072Z,3.28
2019-01-26T21:15:52.136Z,3.23
2019-01-26T21:18:21.392Z,3.30
2019-01-26T21:20:53.461Z,3.35
2019-01-26T21:23:23.258Z,3.44
2019-01-26T21:25:52.721Z,3.45
2019-01-26T21:28:21.556Z,3.47
2019-01-26T21:30:51.902Z,3.51
2019-01-26T21:33:21.403Z,3.60
2019-01-26T21:35:50.401Z,3.67
2019-01-26T21:38:19.497Z,3.60
2019-01-26T21:40:50.856Z,3.72
2019-01-26T21:43:20.544Z,3.76
2019-01-26T21:45:50.445Z,3.76
2019-01-26T21:48:19.257Z,3.88
2019-01-26T21:50:48.165Z,3.77
2019-01-26T21:53:16.900Z,3.92
2019-01-26T21:55:45.869Z,3.80
2019-01-26T21:58:14.704Z,3.86
2019-01-26T22:00:43.765Z,3.91
2019-01-26T22:03:12.865Z,3.90
2019-01-26T22:05:41.672Z,3.93
2019-01-26T22:08:10.368Z,3.92
2019-01-26T22:10:39.703Z,3.87
2019-01-26T22:13:08.544Z,3.93
2019-01-26T22:15:37.948Z,3.93
2019-01-26T22:18:06.727Z,3.95
2019-01-26T22:20:35.916Z,3.97
2019-01-26T22:23:05.446Z,3.94
2019-01-26T22:25:34.521Z,3.93
2019-01-26T22:28:03.288Z,3.94
2019-01-26T22:30:34.311Z,3.92
2019-01-26T22:33:03.804Z,3.92
2019-01-26T22:35:33.609Z,3.91
2019-01-26T22:38:02.992Z,3.94
2019-01-26T22:40:36.020Z,3.95
2019-01-26T22:43:06.258Z,3.93
2019-01-26T22:45:35.606Z,3.90
2019-01-26T22:48:04.504Z,3.85
2019-01-26T22:50:33.308Z,3.96
2019-01-26T22:53:02.545Z,3.92
2019-01-26T22:55:31.394Z,3.89
2019-01-26T22:58:00.048Z,3.89
2019-01-26T23:00:51.626Z,3.93
2019-01-26T23:03:36.741Z,3.92
2019-01-26T23:06:27.465Z,3.83
2019-01-26T23:08:58.918Z,3.91
2019-01-26T23:11:43.604Z,3.88
2019-01-26T23:14:21.127Z,3.86
2019-01-26T23:17:16.612Z,3.89
2019-01-26T23:19:51.096Z,3.89
2019-01-26T23:22:34.544Z,3.90
2019-01-26T23:25:28.483Z,3.91
2019-01-26T23:28:00.235Z,3.89
2019-01-26T23:30:34.961Z,3.85
2019-01-26T23:33:03.578Z,3.88
2019-01-26T23:35:32.841Z,3.83
2019-01-26T23:38:01.554Z,3.73
2019-01-26T23:40:30.175Z,3.86
2019-01-26T23:42:58.762Z,3.84
2019-01-26T23:45:27.406Z,3.82
2019-01-26T23:47:56.145Z,3.80
2019-01-26T23:50:24.717Z,3.82
2019-01-26T23:52:53.310Z,3.78
2019-01-26T23:55:22.415Z,3.76
2019-01-26T23:57:51.115Z,3.74
